sensor_id;sensor_type;location;lat;lon;timestamp;P1;durP1;ratioP1;P2;durP2;ratioP2
51602;SDS011;37954;51.980;5.850;2022-12-11T00:00:32;44.77;;;20.13;;
51602;SDS011;37954;51.980;5.850;2022-12-11T00:04:43;44.40;;;20.80;;
51602;SDS011;37954;51.980;5.850;2022-12-11T00:08:55;47.47;;;22.13;;
51602;SDS011;37954;51.980;5.850;2022-12-11T00:13:07;44.20;;;21.57;;
51602;SDS011;37954;51.980;5.850;2022-12-11T00:17:18;48.73;;;21.30;;
51602;SDS011;37954;51.980;5.850;2022-12-11T00:21:30;48.83;;;20.47;;
51602;SDS011;37954;51.980;5.850;2022-12-11T00:25:43;40.63;;;20.20;;
51602;SDS011;37954;51.980;5.850;2022-12-11T00:29:56;50.07;;;19.77;;
51602;SDS011;37954;51.980;5.850;2022-12-11T00:34:09;37.30;;;19.43;;
51602;SDS011;37954;51.980;5.850;2022-12-11T00:38:22;37.47;;;18.97;;
51602;SDS011;37954;51.980;5.850;2022-12-11T00:42:34;44.77;;;20.70;;
51602;SDS011;37954;51.980;5.850;2022-12-11T00:46:45;41.10;;;19.10;;
51602;SDS011;37954;51.980;5.850;2022-12-11T00:50:57;39.93;;;19.67;;
51602;SDS011;37954;51.980;5.850;2022-12-11T00:55:10;46.00;;;20.17;;
51602;SDS011;37954;51.980;5.850;2022-12-11T00:59:22;39.33;;;19.43;;
51602;SDS011;37954;51.980;5.850;2022-12-11T01:03:35;39.23;;;20.07;;
51602;SDS011;37954;51.980;5.850;2022-12-11T01:07:47;38.60;;;19.47;;
51602;SDS011;37954;51.980;5.850;2022-12-11T01:11:59;41.60;;;19.23;;
51602;SDS011;37954;51.980;5.850;2022-12-11T01:16:12;38.73;;;19.10;;
51602;SDS011;37954;51.980;5.850;2022-12-11T01:20:26;35.47;;;18.63;;
51602;SDS011;37954;51.980;5.850;2022-12-11T01:24:38;40.90;;;19.70;;
51602;SDS011;37954;51.980;5.850;2022-12-11T01:28:50;32.10;;;19.37;;
51602;SDS011;37954;51.980;5.850;2022-12-11T01:33:02;36.33;;;18.47;;
51602;SDS011;37954;51.980;5.850;2022-12-11T01:37:14;37.47;;;19.47;;
51602;SDS011;37954;51.980;5.850;2022-12-11T01:41:26;33.70;;;19.27;;
51602;SDS011;37954;51.980;5.850;2022-12-11T01:45:38;34.83;;;19.03;;
51602;SDS011;37954;51.980;5.850;2022-12-11T01:49:52;44.17;;;21.23;;
51602;SDS011;37954;51.980;5.850;2022-12-11T01:54:05;40.17;;;19.80;;
51602;SDS011;37954;51.980;5.850;2022-12-11T01:58:19;37.60;;;18.70;;
51602;SDS011;37954;51.980;5.850;2022-12-11T02:02:35;46.00;;;20.13;;
51602;SDS011;37954;51.980;5.850;2022-12-11T02:06:48;40.37;;;19.63;;
51602;SDS011;37954;51.980;5.850;2022-12-11T02:11:11;38.37;;;19.53;;
51602;SDS011;37954;51.980;5.850;2022-12-11T02:15:42;42.00;;;20.10;;
51602;SDS011;37954;51.980;5.850;2022-12-11T02:29:07;55.87;;;21.07;;
51602;SDS011;37954;51.980;5.850;2022-12-11T02:33:32;56.67;;;21.20;;
51602;SDS011;37954;51.980;5.850;2022-12-11T02:37:56;56.77;;;21.07;;
51602;SDS011;37954;51.980;5.850;2022-12-11T02:42:13;63.10;;;21.97;;
51602;SDS011;37954;51.980;5.850;2022-12-11T02:46:26;83.53;;;19.67;;
51602;SDS011;37954;51.980;5.850;2022-12-11T02:50:41;56.60;;;21.53;;
51602;SDS011;37954;51.980;5.850;2022-12-11T02:54:56;51.97;;;21.20;;
51602;SDS011;37954;51.980;5.850;2022-12-11T02:59:15;51.77;;;21.10;;
51602;SDS011;37954;51.980;5.850;2022-12-11T03:03:31;52.90;;;21.50;;
51602;SDS011;37954;51.980;5.850;2022-12-11T03:07:43;48.73;;;21.93;;
51602;SDS011;37954;51.980;5.850;2022-12-11T03:11:55;42.33;;;21.13;;
51602;SDS011;37954;51.980;5.850;2022-12-11T03:16:29;51.00;;;20.60;;
51602;SDS011;37954;51.980;5.850;2022-12-11T03:20:42;43.23;;;22.13;;
51602;SDS011;37954;51.980;5.850;2022-12-11T03:25:00;44.53;;;20.70;;
51602;SDS011;37954;51.980;5.850;2022-12-11T03:29:18;41.77;;;21.63;;
51602;SDS011;37954;51.980;5.850;2022-12-11T03:33:34;46.00;;;22.33;;
51602;SDS011;37954;51.980;5.850;2022-12-11T03:37:49;46.93;;;21.83;;
51602;SDS011;37954;51.980;5.850;2022-12-11T03:42:04;41.67;;;20.53;;
51602;SDS011;37954;51.980;5.850;2022-12-11T03:46:20;44.20;;;21.57;;
51602;SDS011;37954;51.980;5.850;2022-12-11T03:50:35;46.70;;;22.40;;
51602;SDS011;37954;51.980;5.850;2022-12-11T03:54:48;47.27;;;22.30;;
51602;SDS011;37954;51.980;5.850;2022-12-11T03:59:01;42.20;;;22.00;;
51602;SDS011;37954;51.980;5.850;2022-12-11T04:03:12;50.93;;;22.83;;
51602;SDS011;37954;51.980;5.850;2022-12-11T04:07:25;52.57;;;23.63;;
51602;SDS011;37954;51.980;5.850;2022-12-11T04:11:37;44.17;;;22.07;;
51602;SDS011;37954;51.980;5.850;2022-12-11T04:15:49;46.53;;;22.03;;
51602;SDS011;37954;51.980;5.850;2022-12-11T04:20:02;42.87;;;22.97;;
51602;SDS011;37954;51.980;5.850;2022-12-11T04:24:33;48.53;;;22.40;;
51602;SDS011;37954;51.980;5.850;2022-12-11T04:28:45;38.03;;;21.93;;
51602;SDS011;37954;51.980;5.850;2022-12-11T04:32:57;45.87;;;22.97;;
51602;SDS011;37954;51.980;5.850;2022-12-11T04:37:09;42.90;;;21.47;;
51602;SDS011;37954;51.980;5.850;2022-12-11T04:41:21;42.70;;;21.17;;
51602;SDS011;37954;51.980;5.850;2022-12-11T04:45:32;36.73;;;21.33;;
51602;SDS011;37954;51.980;5.850;2022-12-11T04:49:44;45.87;;;22.37;;
51602;SDS011;37954;51.980;5.850;2022-12-11T04:53:56;43.43;;;21.33;;
51602;SDS011;37954;51.980;5.850;2022-12-11T04:58:09;35.80;;;22.10;;
51602;SDS011;37954;51.980;5.850;2022-12-11T05:02:20;37.93;;;21.83;;
51602;SDS011;37954;51.980;5.850;2022-12-11T05:06:32;37.13;;;20.80;;
51602;SDS011;37954;51.980;5.850;2022-12-11T05:10:44;39.10;;;20.77;;
51602;SDS011;37954;51.980;5.850;2022-12-11T05:15:00;42.20;;;23.13;;
51602;SDS011;37954;51.980;5.850;2022-12-11T05:19:12;38.27;;;21.43;;
51602;SDS011;37954;51.980;5.850;2022-12-11T05:23:23;40.57;;;21.43;;
51602;SDS011;37954;51.980;5.850;2022-12-11T05:27:35;41.33;;;21.57;;
51602;SDS011;37954;51.980;5.850;2022-12-11T05:31:47;39.17;;;21.10;;
51602;SDS011;37954;51.980;5.850;2022-12-11T05:35:59;38.30;;;21.70;;
51602;SDS011;37954;51.980;5.850;2022-12-11T05:40:11;36.43;;;21.27;;
51602;SDS011;37954;51.980;5.850;2022-12-11T05:44:23;36.90;;;21.57;;
51602;SDS011;37954;51.980;5.850;2022-12-11T05:48:35;31.93;;;22.17;;
51602;SDS011;37954;51.980;5.850;2022-12-11T05:52:47;34.53;;;20.37;;
51602;SDS011;37954;51.980;5.850;2022-12-11T05:56:59;37.87;;;22.00;;
51602;SDS011;37954;51.980;5.850;2022-12-11T06:01:21;37.13;;;21.53;;
51602;SDS011;37954;51.980;5.850;2022-12-11T06:05:38;31.23;;;21.10;;
51602;SDS011;37954;51.980;5.850;2022-12-11T06:09:52;31.70;;;21.57;;
51602;SDS011;37954;51.980;5.850;2022-12-11T06:14:03;37.43;;;23.07;;
51602;SDS011;37954;51.980;5.850;2022-12-11T06:18:15;43.07;;;29.90;;
51602;SDS011;37954;51.980;5.850;2022-12-11T06:22:27;29.67;;;21.10;;
51602;SDS011;37954;51.980;5.850;2022-12-11T06:26:38;32.10;;;21.23;;
51602;SDS011;37954;51.980;5.850;2022-12-11T06:30:50;33.73;;;20.57;;
51602;SDS011;37954;51.980;5.850;2022-12-11T06:35:02;38.40;;;25.90;;
51602;SDS011;37954;51.980;5.850;2022-12-11T06:39:14;37.87;;;25.93;;
51602;SDS011;37954;51.980;5.850;2022-12-11T06:43:25;34.23;;;23.07;;
51602;SDS011;37954;51.980;5.850;2022-12-11T06:47:37;27.97;;;19.63;;
51602;SDS011;37954;51.980;5.850;2022-12-11T06:51:49;23.87;;;17.80;;
51602;SDS011;37954;51.980;5.850;2022-12-11T06:56:07;24.10;;;18.23;;
51602;SDS011;37954;51.980;5.850;2022-12-11T07:00:24;26.43;;;17.63;;
51602;SDS011;37954;51.980;5.850;2022-12-11T07:04:35;29.07;;;17.03;;
51602;SDS011;37954;51.980;5.850;2022-12-11T07:08:47;26.20;;;17.97;;
51602;SDS011;37954;51.980;5.850;2022-12-11T07:12:59;23.60;;;16.57;;
51602;SDS011;37954;51.980;5.850;2022-12-11T07:17:10;21.70;;;15.47;;
51602;SDS011;37954;51.980;5.850;2022-12-11T07:21:22;36.30;;;23.60;;
51602;SDS011;37954;51.980;5.850;2022-12-11T07:25:35;30.53;;;23.10;;
51602;SDS011;37954;51.980;5.850;2022-12-11T07:29:47;39.30;;;23.60;;
51602;SDS011;37954;51.980;5.850;2022-12-11T07:34:01;34.77;;;22.60;;
51602;SDS011;37954;51.980;5.850;2022-12-11T07:38:16;24.73;;;18.87;;
51602;SDS011;37954;51.980;5.850;2022-12-11T07:42:27;22.83;;;15.20;;
51602;SDS011;37954;51.980;5.850;2022-12-11T07:46:39;27.00;;;14.80;;
51602;SDS011;37954;51.980;5.850;2022-12-11T07:50:50;24.60;;;15.10;;
51602;SDS011;37954;51.980;5.850;2022-12-11T07:55:02;18.20;;;13.33;;
51602;SDS011;37954;51.980;5.850;2022-12-11T07:59:14;20.83;;;15.30;;
51602;SDS011;37954;51.980;5.850;2022-12-11T08:03:26;22.17;;;14.17;;
51602;SDS011;37954;51.980;5.850;2022-12-11T08:07:38;20.90;;;14.60;;
51602;SDS011;37954;51.980;5.850;2022-12-11T08:11:50;20.87;;;14.57;;
51602;SDS011;37954;51.980;5.850;2022-12-11T08:16:03;17.87;;;13.23;;
51602;SDS011;37954;51.980;5.850;2022-12-11T08:20:15;15.97;;;12.90;;
51602;SDS011;37954;51.980;5.850;2022-12-11T08:24:27;17.20;;;12.33;;
51602;SDS011;37954;51.980;5.850;2022-12-11T08:28:38;17.50;;;11.67;;
51602;SDS011;37954;51.980;5.850;2022-12-11T08:32:50;15.33;;;11.57;;
51602;SDS011;37954;51.980;5.850;2022-12-11T08:37:02;14.97;;;10.73;;
51602;SDS011;37954;51.980;5.850;2022-12-11T08:41:18;14.47;;;10.10;;
51602;SDS011;37954;51.980;5.850;2022-12-11T08:45:32;15.50;;;10.87;;
51602;SDS011;37954;51.980;5.850;2022-12-11T08:49:44;13.00;;;10.23;;
51602;SDS011;37954;51.980;5.850;2022-12-11T08:53:56;13.93;;;10.40;;
51602;SDS011;37954;51.980;5.850;2022-12-11T08:58:09;13.43;;;10.97;;
51602;SDS011;37954;51.980;5.850;2022-12-11T09:02:21;15.53;;;10.90;;
51602;SDS011;37954;51.980;5.850;2022-12-11T09:06:33;17.13;;;10.80;;
51602;SDS011;37954;51.980;5.850;2022-12-11T09:10:44;14.80;;;10.80;;
51602;SDS011;37954;51.980;5.850;2022-12-11T09:14:56;12.70;;;10.10;;
51602;SDS011;37954;51.980;5.850;2022-12-11T09:19:10;13.40;;;10.40;;
51602;SDS011;37954;51.980;5.850;2022-12-11T09:23:24;16.23;;;11.80;;
51602;SDS011;37954;51.980;5.850;2022-12-11T09:27:35;14.10;;;11.17;;
51602;SDS011;37954;51.980;5.850;2022-12-11T09:31:47;15.80;;;11.43;;
51602;SDS011;37954;51.980;5.850;2022-12-11T09:36:00;12.70;;;10.60;;
51602;SDS011;37954;51.980;5.850;2022-12-11T09:40:13;13.83;;;10.50;;
51602;SDS011;37954;51.980;5.850;2022-12-11T09:49:08;17.27;;;13.33;;
51602;SDS011;37954;51.980;5.850;2022-12-11T09:53:30;15.27;;;13.70;;
51602;SDS011;37954;51.980;5.850;2022-12-11T09:57:47;17.80;;;11.63;;
51602;SDS011;37954;51.980;5.850;2022-12-11T10:02:20;13.47;;;10.73;;
51602;SDS011;37954;51.980;5.850;2022-12-11T10:06:36;14.67;;;10.30;;
51602;SDS011;37954;51.980;5.850;2022-12-11T10:11:17;16.60;;;10.37;;
51602;SDS011;37954;51.980;5.850;2022-12-11T10:24:43;16.83;;;11.13;;
51602;SDS011;37954;51.980;5.850;2022-12-11T10:29:20;14.83;;;10.90;;
51602;SDS011;37954;51.980;5.850;2022-12-11T10:38:14;15.83;;;11.33;;
51602;SDS011;37954;51.980;5.850;2022-12-11T10:42:52;16.20;;;11.63;;
51602;SDS011;37954;51.980;5.850;2022-12-11T10:47:08;14.43;;;11.37;;
51602;SDS011;37954;51.980;5.850;2022-12-11T10:51:23;15.50;;;12.40;;
51602;SDS011;37954;51.980;5.850;2022-12-11T10:55:43;16.90;;;11.17;;
51602;SDS011;37954;51.980;5.850;2022-12-11T10:59:57;11.57;;;10.00;;
51602;SDS011;37954;51.980;5.850;2022-12-11T11:04:21;14.50;;;10.67;;
51602;SDS011;37954;51.980;5.850;2022-12-11T11:08:41;15.90;;;12.40;;
51602;SDS011;37954;51.980;5.850;2022-12-11T11:13:00;16.87;;;10.00;;
51602;SDS011;37954;51.980;5.850;2022-12-11T11:17:14;16.20;;;11.43;;
51602;SDS011;37954;51.980;5.850;2022-12-11T11:21:27;15.40;;;11.63;;
51602;SDS011;37954;51.980;5.850;2022-12-11T11:25:47;14.63;;;11.30;;
51602;SDS011;37954;51.980;5.850;2022-12-11T11:30:17;13.93;;;11.40;;
51602;SDS011;37954;51.980;5.850;2022-12-11T11:34:29;19.87;;;13.67;;
51602;SDS011;37954;51.980;5.850;2022-12-11T11:38:43;16.13;;;12.00;;
51602;SDS011;37954;51.980;5.850;2022-12-11T11:47:59;17.97;;;12.73;;
51602;SDS011;37954;51.980;5.850;2022-12-11T11:56:44;16.37;;;12.63;;
51602;SDS011;37954;51.980;5.850;2022-12-11T12:00:56;17.60;;;12.73;;
51602;SDS011;37954;51.980;5.850;2022-12-11T12:05:11;17.70;;;13.23;;
51602;SDS011;37954;51.980;5.850;2022-12-11T12:09:37;22.67;;;13.53;;
51602;SDS011;37954;51.980;5.850;2022-12-11T12:19:22;17.80;;;13.00;;
51602;SDS011;37954;51.980;5.850;2022-12-11T12:33:14;17.63;;;13.13;;
51602;SDS011;37954;51.980;5.850;2022-12-11T12:42:17;15.47;;;12.20;;
51602;SDS011;37954;51.980;5.850;2022-12-11T12:51:03;19.00;;;13.47;;
51602;SDS011;37954;51.980;5.850;2022-12-11T12:59:33;22.77;;;12.97;;
51602;SDS011;37954;51.980;5.850;2022-12-11T13:03:55;19.50;;;12.33;;
51602;SDS011;37954;51.980;5.850;2022-12-11T13:08:22;19.90;;;12.03;;
51602;SDS011;37954;51.980;5.850;2022-12-11T13:12:40;12.70;;;10.93;;
51602;SDS011;37954;51.980;5.850;2022-12-11T13:17:03;16.30;;;11.70;;
51602;SDS011;37954;51.980;5.850;2022-12-11T13:21:36;20.30;;;12.20;;
51602;SDS011;37954;51.980;5.850;2022-12-11T13:25:52;19.87;;;11.73;;
51602;SDS011;37954;51.980;5.850;2022-12-11T13:34:26;19.57;;;12.03;;
51602;SDS011;37954;51.980;5.850;2022-12-11T13:38:45;20.53;;;12.03;;
51602;SDS011;37954;51.980;5.850;2022-12-11T13:43:01;20.27;;;12.33;;
51602;SDS011;37954;51.980;5.850;2022-12-11T13:47:16;15.67;;;12.33;;
51602;SDS011;37954;51.980;5.850;2022-12-11T13:51:30;15.73;;;12.33;;
51602;SDS011;37954;51.980;5.850;2022-12-11T13:55:45;17.23;;;12.03;;
51602;SDS011;37954;51.980;5.850;2022-12-11T13:59:57;17.13;;;12.13;;
51602;SDS011;37954;51.980;5.850;2022-12-11T14:04:10;16.90;;;12.60;;
51602;SDS011;37954;51.980;5.850;2022-12-11T14:08:30;15.43;;;12.30;;
51602;SDS011;37954;51.980;5.850;2022-12-11T14:13:04;17.77;;;12.90;;
51602;SDS011;37954;51.980;5.850;2022-12-11T14:17:22;18.03;;;12.67;;
51602;SDS011;37954;51.980;5.850;2022-12-11T14:21:36;16.27;;;12.60;;
51602;SDS011;37954;51.980;5.850;2022-12-11T14:25:55;20.13;;;11.90;;
51602;SDS011;37954;51.980;5.850;2022-12-11T14:30:27;16.20;;;12.20;;
51602;SDS011;37954;51.980;5.850;2022-12-11T14:34:41;16.77;;;11.20;;
51602;SDS011;37954;51.980;5.850;2022-12-11T14:38:56;19.20;;;12.63;;
51602;SDS011;37954;51.980;5.850;2022-12-11T14:43:23;15.10;;;11.87;;
51602;SDS011;37954;51.980;5.850;2022-12-11T14:47:47;16.27;;;11.83;;
51602;SDS011;37954;51.980;5.850;2022-12-11T14:52:00;17.20;;;11.93;;
51602;SDS011;37954;51.980;5.850;2022-12-11T14:56:16;17.23;;;11.10;;
51602;SDS011;37954;51.980;5.850;2022-12-11T15:00:31;17.87;;;13.60;;
51602;SDS011;37954;51.980;5.850;2022-12-11T15:04:55;21.40;;;13.13;;
51602;SDS011;37954;51.980;5.850;2022-12-11T15:13:31;19.03;;;14.10;;
51602;SDS011;37954;51.980;5.850;2022-12-11T15:17:46;22.40;;;13.60;;
51602;SDS011;37954;51.980;5.850;2022-12-11T15:22:03;20.13;;;13.07;;
51602;SDS011;37954;51.980;5.850;2022-12-11T15:26:19;15.77;;;12.20;;
51602;SDS011;37954;51.980;5.850;2022-12-11T15:30:33;12.77;;;10.50;;
51602;SDS011;37954;51.980;5.850;2022-12-11T15:34:46;18.97;;;11.93;;
51602;SDS011;37954;51.980;5.850;2022-12-11T15:39:03;21.13;;;14.83;;
51602;SDS011;37954;51.980;5.850;2022-12-11T15:43:19;17.10;;;11.30;;
51602;SDS011;37954;51.980;5.850;2022-12-11T15:47:31;16.63;;;12.07;;
51602;SDS011;37954;51.980;5.850;2022-12-11T15:51:43;18.87;;;12.17;;
51602;SDS011;37954;51.980;5.850;2022-12-11T15:55:55;14.97;;;11.23;;
51602;SDS011;37954;51.980;5.850;2022-12-11T16:00:09;14.23;;;11.87;;
51602;SDS011;37954;51.980;5.850;2022-12-11T16:04:24;12.00;;;10.63;;
51602;SDS011;37954;51.980;5.850;2022-12-11T16:08:36;21.17;;;13.82;;
51602;SDS011;37954;51.980;5.850;2022-12-11T16:12:47;20.27;;;12.57;;
51602;SDS011;37954;51.980;5.850;2022-12-11T16:16:59;13.43;;;11.17;;
51602;SDS011;37954;51.980;5.850;2022-12-11T16:21:10;16.00;;;11.57;;
51602;SDS011;37954;51.980;5.850;2022-12-11T16:25:30;16.40;;;11.80;;
51602;SDS011;37954;51.980;5.850;2022-12-11T16:29:42;16.10;;;12.03;;
51602;SDS011;37954;51.980;5.850;2022-12-11T16:33:54;14.77;;;11.57;;
51602;SDS011;37954;51.980;5.850;2022-12-11T16:38:06;19.77;;;12.57;;
51602;SDS011;37954;51.980;5.850;2022-12-11T16:42:17;20.70;;;13.60;;
51602;SDS011;37954;51.980;5.850;2022-12-11T16:46:30;19.50;;;13.53;;
51602;SDS011;37954;51.980;5.850;2022-12-11T16:50:42;16.33;;;12.60;;
51602;SDS011;37954;51.980;5.850;2022-12-11T16:54:53;19.30;;;12.87;;
51602;SDS011;37954;51.980;5.850;2022-12-11T16:59:07;14.80;;;12.37;;
51602;SDS011;37954;51.980;5.850;2022-12-11T17:03:19;18.40;;;14.37;;
51602;SDS011;37954;51.980;5.850;2022-12-11T17:07:31;19.23;;;13.63;;
51602;SDS011;37954;51.980;5.850;2022-12-11T17:11:43;19.37;;;13.70;;
51602;SDS011;37954;51.980;5.850;2022-12-11T17:15:55;21.90;;;15.33;;
51602;SDS011;37954;51.980;5.850;2022-12-11T17:20:06;20.37;;;15.70;;
51602;SDS011;37954;51.980;5.850;2022-12-11T17:24:19;19.23;;;13.73;;
51602;SDS011;37954;51.980;5.850;2022-12-11T17:28:30;17.70;;;12.57;;
51602;SDS011;37954;51.980;5.850;2022-12-11T17:32:45;23.00;;;17.43;;
51602;SDS011;37954;51.980;5.850;2022-12-11T17:36:58;23.20;;;16.57;;
51602;SDS011;37954;51.980;5.850;2022-12-11T17:41:10;27.67;;;19.80;;
51602;SDS011;37954;51.980;5.850;2022-12-11T17:45:30;21.37;;;13.53;;
51602;SDS011;37954;51.980;5.850;2022-12-11T17:49:42;22.77;;;15.47;;
51602;SDS011;37954;51.980;5.850;2022-12-11T17:53:54;28.63;;;17.23;;
51602;SDS011;37954;51.980;5.850;2022-12-11T17:58:06;23.40;;;16.67;;
51602;SDS011;37954;51.980;5.850;2022-12-11T18:02:17;21.87;;;17.20;;
51602;SDS011;37954;51.980;5.850;2022-12-11T18:06:29;30.50;;;19.27;;
51602;SDS011;37954;51.980;5.850;2022-12-11T18:10:41;25.03;;;18.20;;
51602;SDS011;37954;51.980;5.850;2022-12-11T18:14:53;19.23;;;12.90;;
51602;SDS011;37954;51.980;5.850;2022-12-11T18:19:09;17.87;;;12.90;;
51602;SDS011;37954;51.980;5.850;2022-12-11T18:23:20;20.50;;;15.53;;
51602;SDS011;37954;51.980;5.850;2022-12-11T18:27:32;18.40;;;14.17;;
51602;SDS011;37954;51.980;5.850;2022-12-11T18:31:43;17.13;;;12.83;;
51602;SDS011;37954;51.980;5.850;2022-12-11T18:35:55;12.67;;;10.47;;
51602;SDS011;37954;51.980;5.850;2022-12-11T18:40:07;14.83;;;11.10;;
51602;SDS011;37954;51.980;5.850;2022-12-11T18:44:20;17.17;;;12.60;;
51602;SDS011;37954;51.980;5.850;2022-12-11T18:48:33;16.43;;;13.43;;
51602;SDS011;37954;51.980;5.850;2022-12-11T18:52:44;17.03;;;12.63;;
51602;SDS011;37954;51.980;5.850;2022-12-11T18:56:56;21.57;;;13.07;;
51602;SDS011;37954;51.980;5.850;2022-12-11T19:01:12;16.20;;;12.07;;
51602;SDS011;37954;51.980;5.850;2022-12-11T19:05:27;17.63;;;13.30;;
51602;SDS011;37954;51.980;5.850;2022-12-11T19:09:39;17.63;;;14.40;;
51602;SDS011;37954;51.980;5.850;2022-12-11T19:13:58;20.30;;;15.50;;
51602;SDS011;37954;51.980;5.850;2022-12-11T19:18:09;19.87;;;12.63;;
51602;SDS011;37954;51.980;5.850;2022-12-11T19:22:21;15.17;;;11.90;;
51602;SDS011;37954;51.980;5.850;2022-12-11T19:26:33;17.80;;;11.73;;
51602;SDS011;37954;51.980;5.850;2022-12-11T19:30:46;26.57;;;15.27;;
51602;SDS011;37954;51.980;5.850;2022-12-11T19:34:59;23.47;;;14.80;;
51602;SDS011;37954;51.980;5.850;2022-12-11T19:39:11;17.27;;;11.97;;
51602;SDS011;37954;51.980;5.850;2022-12-11T19:43:24;17.70;;;13.93;;
51602;SDS011;37954;51.980;5.850;2022-12-11T19:47:36;16.33;;;12.30;;
51602;SDS011;37954;51.980;5.850;2022-12-11T19:51:47;13.93;;;11.53;;
51602;SDS011;37954;51.980;5.850;2022-12-11T19:55:59;15.87;;;12.37;;
51602;SDS011;37954;51.980;5.850;2022-12-11T20:00:11;19.17;;;13.33;;
51602;SDS011;37954;51.980;5.850;2022-12-11T20:04:23;16.63;;;12.57;;
51602;SDS011;37954;51.980;5.850;2022-12-11T20:08:34;16.03;;;13.50;;
51602;SDS011;37954;51.980;5.850;2022-12-11T20:12:55;16.43;;;12.60;;
51602;SDS011;37954;51.980;5.850;2022-12-11T20:17:08;16.17;;;13.30;;
51602;SDS011;37954;51.980;5.850;2022-12-11T20:21:24;20.03;;;13.23;;
51602;SDS011;37954;51.980;5.850;2022-12-11T20:25:37;13.80;;;11.20;;
51602;SDS011;37954;51.980;5.850;2022-12-11T20:29:50;18.30;;;14.17;;
51602;SDS011;37954;51.980;5.850;2022-12-11T20:34:02;16.93;;;13.23;;
51602;SDS011;37954;51.980;5.850;2022-12-11T20:38:14;13.70;;;11.67;;
51602;SDS011;37954;51.980;5.850;2022-12-11T20:42:26;17.53;;;12.37;;
51602;SDS011;37954;51.980;5.850;2022-12-11T20:46:38;17.63;;;12.37;;
51602;SDS011;37954;51.980;5.850;2022-12-11T20:50:49;18.87;;;13.53;;
51602;SDS011;37954;51.980;5.850;2022-12-11T20:55:01;18.40;;;13.27;;
51602;SDS011;37954;51.980;5.850;2022-12-11T20:59:12;17.60;;;12.60;;
51602;SDS011;37954;51.980;5.850;2022-12-11T21:03:24;16.70;;;12.33;;
51602;SDS011;37954;51.980;5.850;2022-12-11T21:07:36;15.43;;;12.20;;
51602;SDS011;37954;51.980;5.850;2022-12-11T21:11:47;16.27;;;12.23;;
51602;SDS011;37954;51.980;5.850;2022-12-11T21:16:02;16.60;;;12.53;;
51602;SDS011;37954;51.980;5.850;2022-12-11T21:20:15;15.40;;;12.33;;
51602;SDS011;37954;51.980;5.850;2022-12-11T21:24:27;17.73;;;12.27;;
51602;SDS011;37954;51.980;5.850;2022-12-11T21:28:40;16.17;;;12.17;;
51602;SDS011;37954;51.980;5.850;2022-12-11T21:32:51;17.47;;;12.93;;
51602;SDS011;37954;51.980;5.850;2022-12-11T21:37:03;16.77;;;12.53;;
51602;SDS011;37954;51.980;5.850;2022-12-11T21:41:16;16.70;;;13.30;;
51602;SDS011;37954;51.980;5.850;2022-12-11T21:45:34;17.03;;;12.03;;
51602;SDS011;37954;51.980;5.850;2022-12-11T21:50:06;18.20;;;13.23;;
51602;SDS011;37954;51.980;5.850;2022-12-11T21:54:18;16.53;;;13.63;;
51602;SDS011;37954;51.980;5.850;2022-12-11T21:58:30;22.80;;;15.20;;
51602;SDS011;37954;51.980;5.850;2022-12-11T22:02:42;20.73;;;12.77;;
51602;SDS011;37954;51.980;5.850;2022-12-11T22:06:53;18.07;;;12.77;;
51602;SDS011;37954;51.980;5.850;2022-12-11T22:11:05;19.70;;;16.73;;
51602;SDS011;37954;51.980;5.850;2022-12-11T22:15:18;20.73;;;13.13;;
51602;SDS011;37954;51.980;5.850;2022-12-11T22:19:29;16.23;;;12.30;;
51602;SDS011;37954;51.980;5.850;2022-12-11T22:23:43;13.30;;;11.40;;
51602;SDS011;37954;51.980;5.850;2022-12-11T22:27:55;15.03;;;11.37;;
51602;SDS011;37954;51.980;5.850;2022-12-11T22:32:06;14.97;;;12.03;;
51602;SDS011;37954;51.980;5.850;2022-12-11T22:36:18;15.73;;;11.60;;
51602;SDS011;37954;51.980;5.850;2022-12-11T22:40:30;14.67;;;11.10;;
51602;SDS011;37954;51.980;5.850;2022-12-11T22:44:42;13.27;;;11.13;;
51602;SDS011;37954;51.980;5.850;2022-12-11T22:48:54;14.17;;;11.57;;
51602;SDS011;37954;51.980;5.850;2022-12-11T22:53:06;12.47;;;10.30;;
51602;SDS011;37954;51.980;5.850;2022-12-11T22:57:17;13.90;;;11.40;;
51602;SDS011;37954;51.980;5.850;2022-12-11T23:01:29;14.33;;;11.17;;
51602;SDS011;37954;51.980;5.850;2022-12-11T23:05:41;14.10;;;10.77;;
51602;SDS011;37954;51.980;5.850;2022-12-11T23:09:53;15.90;;;11.87;;
51602;SDS011;37954;51.980;5.850;2022-12-11T23:14:06;14.90;;;11.67;;
51602;SDS011;37954;51.980;5.850;2022-12-11T23:18:19;17.00;;;11.60;;
51602;SDS011;37954;51.980;5.850;2022-12-11T23:22:31;15.17;;;11.50;;
51602;SDS011;37954;51.980;5.850;2022-12-11T23:26:43;16.53;;;11.17;;
51602;SDS011;37954;51.980;5.850;2022-12-11T23:30:55;15.40;;;10.70;;
51602;SDS011;37954;51.980;5.850;2022-12-11T23:35:06;14.53;;;11.40;;
51602;SDS011;37954;51.980;5.850;2022-12-11T23:39:18;14.90;;;11.47;;
51602;SDS011;37954;51.980;5.850;2022-12-11T23:43:30;12.50;;;10.30;;
51602;SDS011;37954;51.980;5.850;2022-12-11T23:47:43;14.60;;;11.23;;
51602;SDS011;37954;51.980;5.850;2022-12-11T23:51:55;13.73;;;11.20;;
51602;SDS011;37954;51.980;5.850;2022-12-11T23:56:08;15.20;;;11.00;;
